Delta Virtual Airport Information Service

Isle of Man Airport

ICAO: EGNS Country: United Kingdom
Latitude: 54.0833 Longitude: -4.62388
Latest Arrival : BAW705982 (EGLC-EGNS) Latest Departure : BAW705981 (EGNS-EGLL)


WX CaptureLIVE
Data provided by noaa.gov | Fetched at 03:28:18

METAR : EGNS 300750Z 18025G35KT 4500 RA FEW006 BKN008 OVC017 13/13 Q0998 TEMPO BKN005

TAF :


Runway Data for EGNS
Data provided by openaviationdata.com

Runway ID Mag Var Hdg Length Elevation Surface ILS Freq ILS Id ILS Slope
3 -3 31° 4017 ft 55 ft Asphalt -- -- --
8 -3 81° 5803 ft 55 ft Asphalt 111.15 IRH 3
21 -3 211° 4017 ft 55 ft Asphalt -- -- --
26 -3 261° 5803 ft 55 ft Asphalt 111.15 IRY 3

Isle of Man Airport, United Kingdom
Use only for reference purposes



Not for navigational purposes.